createdAt,value
2023-04-10T00:00:53.147Z,30.85
2023-04-10T00:03:20.907Z,27.92
2023-04-10T00:05:49.999Z,30.88
2023-04-10T00:08:17.628Z,31.95
2023-04-10T00:10:45.241Z,31.33
2023-04-10T00:13:12.952Z,31.42
2023-04-10T00:15:40.706Z,38.22
2023-04-10T00:18:08.538Z,33.50
2023-04-10T00:20:36.326Z,29.88
2023-04-10T00:23:05.394Z,33.03
2023-04-10T00:25:33.046Z,31.00
2023-04-10T00:28:00.715Z,29.75
2023-04-10T00:30:28.339Z,31.98
2023-04-10T00:32:56.023Z,31.23
2023-04-10T00:35:23.804Z,31.20
2023-04-10T00:37:51.473Z,29.00
2023-04-10T00:40:20.587Z,31.63
2023-04-10T00:42:48.199Z,29.75
2023-04-10T00:45:15.837Z,31.70
2023-04-10T00:47:43.512Z,34.63
2023-04-10T00:50:12.041Z,30.63
2023-04-10T00:52:39.838Z,28.92
2023-04-10T00:55:09.070Z,30.48
2023-04-10T00:57:38.862Z,33.50
2023-04-10T01:00:08.134Z,27.48
2023-04-10T01:02:35.891Z,28.58
2023-04-10T01:05:03.734Z,33.38
2023-04-10T01:07:44.891Z,30.10
2023-04-10T01:10:16.931Z,33.40
2023-04-10T01:12:55.916Z,32.90
2023-04-10T01:15:26.541Z,32.15
2023-04-10T01:17:59.981Z,33.63
2023-04-10T01:20:30.582Z,27.50
2023-04-10T01:23:14.751Z,31.95
2023-04-10T01:25:47.091Z,30.65
2023-04-10T01:28:39.098Z,29.20
2023-04-10T01:31:09.924Z,29.83
2023-04-10T01:33:42.928Z,31.98
2023-04-10T01:36:13.006Z,26.83
2023-04-10T01:38:44.316Z,29.40
2023-04-10T01:41:12.259Z,29.85
2023-04-10T01:43:42.833Z,29.50
2023-04-10T01:46:12.283Z,26.83
2023-04-10T01:48:40.668Z,30.10
2023-04-10T01:51:10.366Z,28.95
2023-04-10T01:53:39.737Z,29.17
2023-04-10T01:56:09.981Z,29.10
2023-04-10T01:58:45.469Z,33.15
2023-04-10T02:01:29.162Z,29.90
2023-04-10T02:03:58.167Z,28.80
2023-04-10T02:06:35.724Z,30.17
2023-04-10T02:09:11.573Z,29.67
2023-04-10T02:11:44.677Z,29.42
2023-04-10T02:14:18.561Z,28.08
2023-04-10T02:16:47.039Z,27.95
2023-04-10T02:19:16.422Z,27.67
2023-04-10T02:21:45.828Z,26.60
2023-04-10T02:24:13.552Z,29.23
2023-04-10T02:26:47.817Z,27.63
2023-04-10T02:29:16.872Z,29.45
2023-04-10T02:31:45.365Z,31.75
2023-04-10T02:34:13.577Z,29.63
2023-04-10T02:36:41.229Z,26.10
2023-04-10T02:39:11.092Z,29.77
2023-04-10T02:41:47.447Z,29.15
2023-04-10T02:44:16.713Z,29.25
2023-04-10T02:46:44.916Z,27.52
2023-04-10T02:49:13.994Z,28.48
2023-04-10T02:51:41.750Z,29.30
2023-04-10T02:54:09.444Z,29.95
2023-04-10T02:56:38.410Z,28.60
2023-04-10T02:59:06.059Z,27.75
2023-04-10T03:01:36.115Z,25.73
2023-04-10T03:04:03.995Z,27.10
2023-04-10T03:06:36.926Z,27.05
2023-04-10T03:09:04.739Z,31.73
2023-04-10T03:11:34.229Z,31.08
2023-04-10T03:14:01.837Z,29.40
2023-04-10T03:16:29.529Z,27.55
2023-04-10T03:18:59.439Z,29.23
2023-04-10T03:21:27.531Z,29.08
2023-04-10T03:23:55.590Z,29.38
2023-04-10T03:26:23.992Z,30.48
2023-04-10T03:28:52.236Z,30.48
2023-04-10T03:31:19.956Z,28.63
2023-04-10T03:33:47.668Z,28.25
2023-04-10T03:36:16.886Z,26.00
2023-04-10T03:38:44.883Z,30.00
2023-04-10T03:41:12.488Z,31.25
2023-04-10T03:43:41.169Z,28.92
2023-04-10T03:46:09.418Z,29.05
2023-04-10T03:48:42.687Z,30.38
2023-04-10T03:51:11.264Z,26.08
2023-04-10T03:53:40.312Z,29.45
2023-04-10T03:56:13.246Z,30.73
2023-04-10T03:58:41.491Z,29.33
2023-04-10T04:01:12.437Z,32.85
2023-04-10T04:03:56.831Z,29.15
2023-04-10T04:06:48.672Z,29.80
2023-04-10T04:09:36.179Z,30.67
2023-04-10T04:12:18.101Z,28.05
2023-04-10T04:14:59.237Z,28.88
2023-04-10T04:17:40.613Z,30.27
2023-04-10T04:20:09.441Z,30.35
2023-04-10T04:22:52.349Z,29.90
2023-04-10T04:25:47.487Z,30.83
2023-04-10T04:28:41.390Z,32.03
2023-04-10T04:31:21.812Z,26.38
2023-04-10T04:34:08.990Z,29.58
2023-04-10T04:36:36.648Z,31.40
2023-04-10T04:39:33.742Z,29.90
2023-04-10T04:42:12.709Z,31.70
2023-04-10T04:45:02.610Z,28.88
2023-04-10T04:47:39.024Z,26.92
2023-04-10T04:50:16.572Z,27.92
2023-04-10T04:52:50.028Z,30.27
2023-04-10T04:55:36.431Z,29.98
2023-04-10T04:58:17.106Z,30.75
2023-04-10T05:01:03.365Z,31.13
2023-04-10T05:03:53.814Z,29.05
2023-04-10T05:06:54.586Z,29.77
2023-04-10T05:09:42.716Z,27.45
2023-04-10T05:12:23.027Z,29.23
2023-04-10T05:15:07.210Z,28.05
2023-04-10T05:17:46.020Z,28.40
2023-04-10T05:20:40.498Z,28.33
2023-04-10T05:23:19.565Z,29.85
2023-04-10T05:26:06.403Z,32.03
2023-04-10T05:28:53.287Z,29.48
2023-04-10T05:31:33.632Z,29.60
2023-04-10T05:34:21.863Z,29.15
2023-04-10T05:37:12.821Z,26.33
2023-04-10T05:39:50.376Z,31.95
2023-04-10T05:42:27.056Z,28.33
2023-04-10T05:45:08.694Z,26.83
2023-04-10T05:47:51.693Z,26.40
2023-04-10T05:50:28.611Z,31.27
2023-04-10T05:53:31.282Z,30.35
2023-04-10T05:56:12.672Z,27.45
2023-04-10T05:58:48.139Z,29.15
2023-04-10T06:01:27.238Z,29.95
2023-04-10T06:04:03.944Z,27.17
2023-04-10T06:06:33.102Z,27.17
2023-04-10T06:09:00.992Z,28.33
2023-04-10T06:11:29.110Z,29.27
2023-04-10T06:13:58.523Z,29.35
2023-04-10T06:16:38.787Z,27.83
2023-04-10T06:19:07.962Z,29.13
2023-04-10T06:21:37.130Z,37.40
2023-04-10T06:24:05.108Z,31.92
2023-04-10T06:26:32.788Z,27.48
2023-04-10T06:29:01.458Z,29.83
2023-04-10T06:31:32.213Z,25.58
2023-04-10T06:33:59.987Z,29.08
2023-04-10T06:36:35.964Z,28.63
2023-04-10T06:39:06.898Z,29.40
2023-04-10T06:41:34.821Z,28.77
2023-04-10T06:44:14.198Z,29.75
2023-04-10T06:46:42.146Z,26.77
2023-04-10T06:49:09.824Z,27.88
2023-04-10T06:51:38.924Z,27.75
2023-04-10T06:54:06.560Z,27.42
2023-04-10T06:56:34.247Z,30.55
2023-04-10T06:59:01.887Z,30.27
2023-04-10T07:01:29.680Z,30.08
2023-04-10T07:04:00.945Z,25.02
2023-04-10T07:06:31.350Z,27.05
2023-04-10T07:09:00.350Z,28.55
2023-04-10T07:11:28.008Z,26.95
2023-04-10T07:13:58.398Z,27.55
2023-04-10T07:16:26.457Z,28.65
2023-04-10T07:18:54.270Z,28.42
2023-04-10T07:21:22.159Z,26.48
2023-04-10T07:23:49.767Z,28.17
2023-04-10T07:26:18.731Z,26.90
2023-04-10T07:28:46.667Z,25.20
2023-04-10T07:31:14.789Z,24.88
2023-04-10T07:33:42.620Z,28.70
2023-04-10T07:36:10.674Z,25.90
2023-04-10T07:38:38.860Z,26.15
2023-04-10T07:41:07.084Z,23.73
2023-04-10T07:43:36.308Z,24.30
2023-04-10T07:46:04.218Z,24.95
2023-04-10T07:48:32.006Z,25.88
2023-04-10T07:50:59.864Z,23.73
2023-04-10T07:53:27.586Z,25.63
2023-04-10T07:55:55.375Z,26.30
2023-04-10T07:58:23.094Z,24.23
2023-04-10T08:00:54.530Z,27.23
2023-04-10T08:03:22.897Z,25.98
2023-04-10T08:05:50.899Z,24.17
2023-04-10T08:08:18.675Z,24.00
2023-04-10T08:10:46.374Z,21.60
2023-04-10T08:13:14.017Z,21.83
2023-04-10T08:15:41.758Z,22.88
2023-04-10T08:18:10.712Z,22.58
2023-04-10T08:20:38.718Z,23.30
2023-04-10T08:25:40.646Z,23.33
2023-04-10T08:28:08.251Z,23.05
2023-04-10T08:30:36.179Z,20.05
2023-04-10T08:33:04.189Z,18.92
2023-04-10T08:35:33.196Z,21.25
2023-04-10T08:38:12.813Z,19.02
2023-04-10T08:40:41.508Z,17.70
2023-04-10T08:43:09.133Z,19.52
2023-04-10T08:45:36.829Z,19.20
2023-04-10T08:48:07.058Z,20.15
2023-04-10T08:50:42.758Z,31.23
2023-04-10T08:53:13.310Z,35.65
2023-04-10T08:55:41.808Z,69.45
2023-04-10T08:58:10.342Z,49.58
2023-04-10T09:00:39.413Z,42.97
2023-04-10T09:03:11.271Z,30.15
2023-04-10T09:05:40.572Z,29.48
2023-04-10T09:08:09.612Z,25.77
2023-04-10T09:10:37.335Z,23.23
2023-04-10T09:13:04.977Z,20.98
2023-04-10T09:15:52.842Z,22.00
2023-04-10T09:18:21.269Z,22.90
2023-04-10T09:20:51.531Z,24.50
2023-04-10T09:23:22.676Z,23.85
2023-04-10T09:25:51.231Z,25.38
2023-04-10T09:28:19.062Z,20.17
2023-04-10T09:30:47.152Z,20.60
2023-04-10T09:33:25.340Z,24.55
2023-04-10T09:35:54.848Z,16.80
2023-04-10T09:38:22.926Z,15.10
2023-04-10T09:40:51.530Z,13.23
2023-04-10T09:43:22.333Z,14.23
2023-04-10T09:45:51.892Z,13.65
2023-04-10T09:48:20.252Z,15.40
2023-04-10T09:50:48.426Z,16.33
2023-04-10T09:53:19.572Z,14.15
2023-04-10T09:55:48.369Z,14.65
2023-04-10T09:58:16.925Z,14.75
2023-04-10T10:00:45.918Z,12.00
2023-04-10T10:03:14.812Z,11.45
2023-04-10T10:05:44.747Z,10.55
2023-04-10T10:08:14.302Z,13.45
2023-04-10T10:10:46.873Z,11.68
2023-04-10T10:13:18.524Z,13.60
2023-04-10T10:15:51.450Z,11.63
2023-04-10T10:18:26.790Z,10.90
2023-04-10T10:20:55.341Z,13.82
2023-04-10T10:23:23.262Z,10.77
2023-04-10T10:25:53.601Z,9.77
2023-04-10T10:28:22.456Z,10.10
2023-04-10T10:30:51.438Z,9.98
2023-04-10T10:33:19.931Z,9.75
2023-04-10T10:35:48.040Z,8.07
2023-04-10T10:38:16.584Z,8.30
2023-04-10T10:40:49.792Z,8.02
2023-04-10T10:43:26.268Z,8.65
2023-04-10T10:46:01.818Z,8.55
2023-04-10T10:48:29.586Z,8.85
2023-04-10T10:50:59.136Z,8.23
2023-04-10T10:53:34.825Z,7.93
2023-04-10T10:56:36.439Z,8.07
2023-04-10T10:59:05.455Z,7.03
2023-04-10T11:01:33.148Z,7.95
2023-04-10T11:04:01.258Z,7.18
2023-04-10T11:06:54.637Z,7.45
2023-04-10T11:09:48.424Z,7.15
2023-04-10T11:12:16.923Z,6.93
2023-04-10T11:14:57.959Z,8.05
2023-04-10T11:17:47.780Z,6.45
2023-04-10T11:20:15.648Z,7.03
2023-04-10T11:23:13.990Z,7.55
2023-04-10T11:25:50.365Z,6.10
2023-04-10T11:28:37.801Z,6.80
2023-04-10T11:31:18.646Z,6.07
2023-04-10T11:33:46.838Z,7.72
2023-04-10T11:36:19.367Z,6.32
2023-04-10T11:38:57.754Z,6.03
2023-04-10T11:41:32.306Z,5.78
2023-04-10T11:44:00.366Z,6.55
2023-04-10T11:46:30.097Z,5.88
2023-04-10T11:49:00.241Z,5.60
2023-04-10T11:51:28.710Z,4.88
2023-04-10T11:54:07.090Z,5.10
2023-04-10T11:56:42.022Z,4.88
2023-04-10T11:59:11.201Z,5.22
2023-04-10T12:01:43.020Z,5.95
2023-04-10T12:04:17.783Z,6.68
2023-04-10T12:06:46.944Z,6.45
2023-04-10T12:09:17.874Z,5.38
2023-04-10T12:11:53.045Z,6.07
2023-04-10T12:14:21.577Z,5.45
2023-04-10T12:16:51.438Z,5.70
2023-04-10T12:19:19.530Z,4.82
2023-04-10T12:21:47.548Z,5.30
2023-04-10T12:24:42.580Z,5.78
2023-04-10T12:27:10.571Z,6.55
2023-04-10T12:29:38.187Z,5.10
2023-04-10T12:32:10.348Z,6.00
2023-04-10T12:34:38.209Z,6.35
2023-04-10T12:37:06.566Z,4.30
2023-04-10T12:39:34.421Z,4.72
2023-04-10T12:42:16.528Z,6.20
2023-04-10T12:44:54.825Z,6.38
2023-04-10T12:47:25.685Z,4.93
2023-04-10T12:50:11.037Z,4.53
2023-04-10T12:52:40.321Z,4.53
2023-04-10T12:55:15.765Z,4.70
2023-04-10T12:57:45.893Z,4.03
2023-04-10T13:00:15.923Z,4.00
2023-04-10T13:02:54.253Z,5.97
2023-04-10T13:05:22.792Z,4.20
2023-04-10T13:08:23.216Z,3.97
2023-04-10T13:10:59.659Z,6.90
2023-04-10T13:13:31.087Z,8.85
2023-04-10T13:15:58.901Z,5.55
2023-04-10T13:18:28.094Z,6.22
2023-04-10T13:20:55.759Z,5.95
2023-04-10T13:23:23.356Z,4.65
2023-04-10T13:25:51.088Z,3.95
2023-04-10T13:28:20.109Z,4.43
2023-04-10T13:30:47.806Z,4.63
2023-04-10T13:33:16.441Z,3.85
2023-04-10T13:35:45.778Z,5.82
2023-04-10T13:38:13.631Z,12.82
2023-04-10T13:40:41.284Z,11.90
2023-04-10T13:43:08.935Z,5.38
2023-04-10T13:45:36.614Z,8.13
2023-04-10T13:48:07.133Z,9.98
2023-04-10T13:50:34.961Z,8.35
2023-04-10T13:53:04.109Z,8.85
2023-04-10T13:55:31.758Z,6.10
2023-04-10T13:57:59.447Z,7.18
2023-04-10T14:00:27.746Z,13.43
2023-04-10T14:02:55.570Z,7.32
2023-04-10T14:05:23.393Z,6.13
2023-04-10T14:07:53.781Z,5.22
2023-04-10T14:10:22.928Z,6.78
2023-04-10T14:12:50.575Z,15.93
2023-04-10T14:15:18.313Z,11.20
2023-04-10T14:17:45.984Z,6.32
2023-04-10T14:20:13.907Z,6.80
2023-04-10T14:22:41.527Z,6.13
2023-04-10T14:25:13.736Z,10.90
2023-04-10T14:27:43.671Z,6.07
2023-04-10T14:30:11.883Z,5.65
2023-04-10T14:32:40.038Z,5.82
2023-04-10T14:35:08.822Z,4.75
2023-04-10T14:37:36.450Z,7.00
2023-04-10T14:40:05.636Z,9.82
2023-04-10T14:42:33.263Z,43.53
2023-04-10T14:45:02.262Z,10.68
2023-04-10T14:47:29.958Z,9.93
2023-04-10T14:49:57.706Z,8.88
2023-04-10T14:52:25.386Z,7.18
2023-04-10T14:54:53.038Z,5.85
2023-04-10T14:57:20.755Z,11.95
2023-04-10T14:59:48.350Z,16.05
2023-04-10T15:02:17.658Z,10.63
2023-04-10T15:04:45.354Z,18.95
2023-04-10T15:07:14.044Z,15.60
2023-04-10T15:09:43.040Z,8.63
2023-04-10T15:12:10.706Z,8.68
2023-04-10T15:14:38.569Z,7.60
2023-04-10T15:17:06.238Z,9.43
2023-04-10T15:19:35.456Z,6.68
2023-04-10T15:22:03.386Z,8.07
2023-04-10T15:24:36.978Z,8.05
2023-04-10T15:27:11.038Z,7.15
2023-04-10T15:29:39.770Z,6.97
2023-04-10T15:32:07.994Z,6.28
2023-04-10T15:34:37.290Z,5.60
2023-04-10T15:37:09.868Z,4.85
2023-04-10T15:39:37.673Z,4.32
2023-04-10T15:42:06.133Z,4.47
2023-04-10T15:44:34.045Z,4.32
2023-04-10T15:47:01.740Z,5.68
2023-04-10T15:49:37.095Z,3.95
2023-04-10T15:52:07.634Z,4.90
2023-04-10T15:54:35.607Z,7.70
2023-04-10T15:57:03.405Z,4.57
2023-04-10T15:59:33.854Z,4.90
2023-04-10T16:02:01.541Z,4.75
2023-04-10T16:04:29.537Z,4.97
2023-04-10T16:06:57.337Z,4.75
2023-04-10T16:09:26.944Z,4.30
2023-04-10T16:11:55.995Z,5.45
2023-04-10T16:14:23.656Z,4.00
2023-04-10T16:16:51.932Z,4.35
2023-04-10T16:19:19.607Z,4.50
2023-04-10T16:21:47.353Z,5.50
2023-04-10T16:24:15.428Z,4.53
2023-04-10T16:26:44.440Z,6.30
2023-04-10T16:29:12.134Z,4.50
2023-04-10T16:31:39.950Z,4.25
2023-04-10T16:34:07.622Z,4.25
2023-04-10T16:36:35.210Z,3.97
2023-04-10T16:39:02.805Z,4.10
2023-04-10T16:41:30.417Z,4.30
2023-04-10T16:43:59.358Z,4.82
2023-04-10T16:46:27.136Z,7.60
2023-04-10T16:48:55.192Z,5.15
2023-04-10T16:51:24.386Z,5.35
2023-04-10T16:53:52.335Z,4.20
2023-04-10T16:56:20.262Z,7.72
2023-04-10T16:58:47.902Z,5.32
2023-04-10T17:01:18.994Z,6.93
2023-04-10T17:03:47.506Z,7.47
2023-04-10T17:06:15.869Z,7.57
2023-04-10T17:08:44.010Z,8.02
2023-04-10T17:11:12.440Z,8.43
2023-04-10T17:13:40.432Z,6.53
2023-04-10T17:16:09.451Z,6.43
2023-04-10T17:18:38.453Z,10.00
2023-04-10T17:21:06.713Z,8.82
2023-04-10T17:23:34.399Z,7.53
2023-04-10T17:26:05.541Z,5.95
2023-04-10T17:28:33.523Z,6.13
2023-04-10T17:31:01.475Z,6.47
2023-04-10T17:33:29.532Z,6.80
2023-04-10T17:35:58.636Z,6.15
2023-04-10T17:38:26.470Z,7.63
2023-04-10T17:40:54.208Z,7.13
2023-04-10T17:43:22.903Z,5.45
2023-04-10T17:45:50.688Z,6.60
2023-04-10T17:48:18.660Z,6.05
2023-04-10T17:50:46.455Z,6.68
2023-04-10T17:53:15.697Z,6.15
2023-04-10T17:55:43.385Z,5.03
2023-04-10T17:58:11.183Z,5.45
2023-04-10T18:00:41.626Z,6.85
2023-04-10T18:03:09.464Z,6.70
2023-04-10T18:05:38.584Z,7.78
2023-04-10T18:08:07.853Z,7.63
2023-04-10T18:10:36.961Z,6.45
2023-04-10T18:13:04.641Z,7.13
2023-04-10T18:15:32.396Z,7.72
2023-04-10T18:18:00.256Z,5.85
2023-04-10T18:20:27.867Z,6.55
2023-04-10T18:22:55.542Z,9.02
2023-04-10T18:25:23.144Z,8.60
2023-04-10T18:28:13.182Z,7.63
2023-04-10T18:30:40.611Z,7.95
2023-04-10T18:33:11.106Z,7.65
2023-04-10T18:35:39.347Z,7.93
2023-04-10T18:38:07.535Z,6.63
2023-04-10T18:40:36.688Z,8.55
2023-04-10T18:43:06.350Z,7.70
2023-04-10T18:45:35.007Z,9.20
2023-04-10T18:48:02.673Z,6.60
2023-04-10T18:50:31.333Z,8.65
2023-04-10T18:52:58.941Z,8.43
2023-04-10T18:55:26.680Z,7.72
2023-04-10T18:57:54.358Z,8.82
2023-04-10T19:00:23.586Z,7.55
2023-04-10T19:02:51.356Z,8.25
2023-04-10T19:05:19.203Z,7.18
2023-04-10T19:07:56.575Z,8.45
2023-04-10T19:10:31.172Z,6.85
2023-04-10T19:12:58.922Z,8.43
2023-04-10T19:15:28.101Z,6.60
2023-04-10T19:17:56.206Z,6.30
2023-04-10T19:20:50.915Z,7.82
2023-04-10T19:23:11.779Z,8.25
2023-04-10T19:25:39.538Z,7.95
2023-04-10T19:28:07.486Z,6.20
2023-04-10T19:30:36.785Z,6.15
2023-04-10T19:33:04.630Z,6.90
2023-04-10T19:35:32.370Z,7.50
2023-04-10T19:38:00.261Z,7.93
2023-04-10T19:40:28.218Z,6.82
2023-04-10T19:42:58.108Z,7.05
2023-04-10T19:45:28.997Z,7.30
2023-04-10T19:47:58.545Z,7.22
2023-04-10T19:50:26.291Z,7.15
2023-04-10T19:52:53.996Z,6.72
2023-04-10T19:55:21.960Z,8.02
2023-04-10T19:57:50.517Z,8.95
2023-04-10T20:00:18.817Z,6.85
2023-04-10T20:02:46.727Z,6.75
2023-04-10T20:05:16.123Z,6.40
2023-04-10T20:07:43.898Z,8.02
2023-04-10T20:10:11.955Z,12.05
2023-04-10T20:12:39.633Z,7.50
2023-04-10T20:15:08.863Z,6.45
2023-04-10T20:17:38.396Z,7.53
2023-04-10T20:20:07.258Z,6.53
2023-04-10T20:22:36.325Z,6.88
2023-04-10T20:25:03.977Z,7.63
2023-04-10T20:27:31.702Z,7.00
2023-04-10T20:29:59.384Z,7.68
2023-04-10T20:32:27.280Z,6.03
2023-04-10T20:34:54.932Z,9.48
2023-04-10T20:37:22.847Z,8.10
2023-04-10T20:39:52.019Z,7.78
2023-04-10T20:42:19.688Z,6.65
2023-04-10T20:44:47.352Z,6.57
2023-04-10T20:47:15.101Z,6.13
2023-04-10T20:49:42.958Z,5.88
2023-04-10T20:52:10.834Z,5.95
2023-04-10T20:54:38.589Z,7.30
2023-04-10T20:57:07.650Z,5.60
2023-04-10T20:59:36.024Z,5.90
2023-04-10T21:02:04.329Z,6.07
2023-04-10T21:04:32.640Z,6.82
2023-04-10T21:07:00.376Z,7.35
2023-04-10T21:09:28.058Z,6.15
2023-04-10T21:11:55.740Z,6.45
2023-04-10T21:14:24.924Z,6.28
2023-04-10T21:16:52.723Z,7.30
2023-04-10T21:19:20.566Z,7.32
2023-04-10T21:21:48.277Z,5.63
2023-04-10T21:24:15.952Z,5.85
2023-04-10T21:26:43.665Z,5.82
2023-04-10T21:29:11.346Z,5.80
2023-04-10T21:31:40.344Z,5.68
2023-04-10T21:34:08.108Z,5.10
2023-04-10T21:36:35.723Z,4.20
2023-04-10T21:39:03.374Z,5.63
2023-04-10T21:41:30.982Z,5.50
2023-04-10T21:44:00.299Z,4.07
2023-04-10T21:46:28.216Z,5.13
2023-04-10T21:48:57.422Z,4.30
2023-04-10T21:51:26.945Z,3.65
2023-04-10T21:53:54.690Z,5.72
2023-04-10T21:56:22.388Z,3.75
2023-04-10T21:58:50.019Z,3.95
2023-04-10T22:01:17.736Z,4.45
2023-04-10T22:03:45.643Z,6.20
2023-04-10T22:06:14.946Z,4.55
2023-04-10T22:08:42.791Z,3.78
2023-04-10T22:11:10.597Z,4.68
2023-04-10T22:13:38.509Z,4.22
2023-04-10T22:16:06.754Z,4.47
2023-04-10T22:18:34.430Z,3.83
2023-04-10T22:21:02.324Z,5.63
2023-04-10T22:23:32.097Z,5.35
2023-04-10T22:26:00.718Z,4.30
2023-04-10T22:28:28.739Z,5.63
2023-04-10T22:30:56.394Z,4.30
2023-04-10T22:33:24.060Z,4.55
2023-04-10T22:35:53.492Z,6.20
2023-04-10T22:38:21.250Z,6.22
2023-04-10T22:40:50.317Z,5.30
2023-04-10T22:43:17.985Z,6.03
2023-04-10T22:45:45.698Z,6.22
2023-04-10T22:48:13.354Z,7.03
2023-04-10T22:50:41.163Z,11.23
2023-04-10T22:53:10.308Z,7.97
2023-04-10T22:55:38.415Z,7.57
2023-04-10T22:58:07.734Z,5.78
2023-04-10T23:00:35.972Z,5.22
2023-04-10T23:03:03.720Z,5.20
2023-04-10T23:05:32.999Z,7.13
2023-04-10T23:08:00.779Z,6.13
2023-04-10T23:10:28.434Z,5.05
2023-04-10T23:12:56.061Z,5.68
2023-04-10T23:15:25.125Z,6.50
2023-04-10T23:17:52.887Z,4.95
2023-04-10T23:20:20.862Z,5.78
2023-04-10T23:22:48.532Z,4.57
2023-04-10T23:25:16.294Z,4.60
2023-04-10T23:27:43.952Z,6.35
2023-04-10T23:30:12.164Z,7.85
2023-04-10T23:32:41.258Z,4.97
2023-04-10T23:35:09.702Z,6.05
2023-04-10T23:37:37.337Z,5.20
2023-04-10T23:40:05.746Z,3.97
2023-04-10T23:42:33.351Z,4.88
2023-04-10T23:45:00.942Z,4.60
2023-04-10T23:47:28.600Z,4.32
2023-04-10T23:49:57.692Z,4.25
2023-04-10T23:52:25.552Z,4.60
2023-04-10T23:54:53.252Z,4.00
2023-04-10T23:57:20.851Z,4.10
2023-04-10T23:59:48.548Z,4.05
